createdAt,value
2019-04-16T00:02:11.057Z,2.72
2019-04-16T00:04:59.980Z,2.92
2019-04-16T00:07:55.823Z,4.15
2019-04-16T00:10:38.541Z,3.20
2019-04-16T00:13:21.218Z,2.85
2019-04-16T00:15:52.633Z,3.95
2019-04-16T00:18:22.977Z,4.45
2019-04-16T00:21:10.879Z,4.35
2019-04-16T00:23:59.779Z,3.42
2019-04-16T00:26:29.933Z,4.72
2019-04-16T00:29:02.274Z,3.87
2019-04-16T00:31:34.332Z,3.50
2019-04-16T00:34:04.274Z,3.90
2019-04-16T00:36:34.039Z,2.98
2019-04-16T00:39:05.309Z,3.75
2019-04-16T00:41:35.835Z,3.17
2019-04-16T00:44:05.766Z,2.80
2019-04-16T00:46:35.962Z,2.65
2019-04-16T00:49:06.113Z,2.30
2019-04-16T00:51:36.005Z,3.52
2019-04-16T00:54:09.865Z,2.92
2019-04-16T00:56:37.607Z,3.40
2019-04-16T00:59:07.832Z,4.70
2019-04-16T01:01:37.670Z,3.85
2019-04-16T01:04:07.566Z,3.10
2019-04-16T01:06:37.905Z,3.17
2019-04-16T01:09:09.263Z,2.90
2019-04-16T01:11:39.220Z,3.33
2019-04-16T01:14:09.261Z,2.58
2019-04-16T01:16:39.226Z,2.65
2019-04-16T01:19:10.155Z,2.47
2019-04-16T01:21:44.625Z,2.72
2019-04-16T01:24:12.269Z,3.05
2019-04-16T01:26:42.079Z,2.50
2019-04-16T01:29:13.503Z,3.17
2019-04-16T01:31:52.012Z,3.98
2019-04-16T01:34:43.317Z,3.50
2019-04-16T01:37:25.444Z,3.92
2019-04-16T01:39:53.492Z,2.83
2019-04-16T01:42:24.267Z,3.60
2019-04-16T01:44:53.973Z,2.95
2019-04-16T01:47:23.828Z,3.95
2019-04-16T01:49:54.311Z,4.15
2019-04-16T01:52:24.300Z,4.70
2019-04-16T01:54:57.853Z,3.85
2019-04-16T01:57:28.391Z,4.60
2019-04-16T01:59:58.187Z,3.90
2019-04-16T02:02:28.096Z,3.37
2019-04-16T02:04:59.293Z,3.98
2019-04-16T02:07:29.061Z,2.75
2019-04-16T02:09:59.131Z,3.20
2019-04-16T02:12:29.072Z,2.30
2019-04-16T02:14:58.955Z,2.90
2019-04-16T02:17:28.825Z,3.77
2019-04-16T02:19:58.782Z,4.20
2019-04-16T02:22:30.556Z,3.08
2019-04-16T02:25:00.525Z,3.40
2019-04-16T02:27:30.401Z,3.40
2019-04-16T02:30:02.660Z,2.12
2019-04-16T02:32:33.332Z,2.00
2019-04-16T02:35:03.542Z,2.80
2019-04-16T02:37:36.326Z,3.08
2019-04-16T02:40:05.748Z,2.90
2019-04-16T02:42:36.694Z,2.87
2019-04-16T02:45:07.041Z,3.30
2019-04-16T02:47:41.785Z,3.40
2019-04-16T02:50:12.059Z,3.37
2019-04-16T02:52:52.358Z,2.92
2019-04-16T02:55:44.169Z,2.85
2019-04-16T02:58:17.594Z,2.98
2019-04-16T03:01:25.030Z,2.62
2019-04-16T03:03:59.858Z,2.65
2019-04-16T03:06:32.021Z,2.77
2019-04-16T03:09:01.803Z,3.05
2019-04-16T03:11:33.194Z,3.47
2019-04-16T03:14:03.286Z,3.52
2019-04-16T03:16:58.609Z,2.25
2019-04-16T03:19:32.654Z,3.08
2019-04-16T03:22:03.309Z,3.33
2019-04-16T03:24:33.642Z,4.40
2019-04-16T03:27:05.219Z,3.87
2019-04-16T03:29:35.696Z,3.25
2019-04-16T03:32:06.179Z,2.08
2019-04-16T03:34:36.702Z,3.27
2019-04-16T03:37:06.617Z,3.25
2019-04-16T03:39:36.495Z,4.33
2019-04-16T03:42:06.317Z,2.55
2019-04-16T03:44:37.307Z,2.27
2019-04-16T03:47:07.365Z,3.52
2019-04-16T03:49:37.221Z,2.60
2019-04-16T03:52:08.766Z,3.95
2019-04-16T03:54:38.709Z,3.20
2019-04-16T03:57:08.848Z,2.60
2019-04-16T03:59:40.046Z,4.45
2019-04-16T04:02:10.659Z,3.30
2019-04-16T04:04:40.421Z,4.15
2019-04-16T04:07:12.327Z,4.80
2019-04-16T04:09:43.394Z,3.37
2019-04-16T04:12:14.320Z,4.00
2019-04-16T04:14:44.661Z,4.05
2019-04-16T04:17:14.463Z,3.98
2019-04-16T04:19:46.242Z,4.90
2019-04-16T04:22:16.425Z,4.45
2019-04-16T04:24:46.668Z,3.70
2019-04-16T04:27:19.205Z,3.92
2019-04-16T04:29:48.572Z,4.10
2019-04-16T04:32:18.585Z,4.72
2019-04-16T04:34:49.584Z,2.67
2019-04-16T04:37:19.847Z,3.45
2019-04-16T04:39:50.099Z,3.52
2019-04-16T04:42:19.980Z,3.65
2019-04-16T04:44:49.910Z,3.42
2019-04-16T04:47:20.237Z,3.67
2019-04-16T04:49:50.449Z,3.65
2019-04-16T04:52:20.729Z,3.72
2019-04-16T04:54:51.375Z,4.12
2019-04-16T04:57:22.509Z,3.92
2019-04-16T04:59:53.387Z,3.20
2019-04-16T05:02:24.473Z,3.47
2019-04-16T05:04:59.889Z,5.42
2019-04-16T05:07:31.153Z,3.98
2019-04-16T05:10:01.054Z,3.20
2019-04-16T05:12:30.990Z,4.65
2019-04-16T05:15:03.754Z,4.30
2019-04-16T05:17:32.393Z,3.77
2019-04-16T05:20:02.311Z,5.42
2019-04-16T05:22:33.101Z,3.40
2019-04-16T05:25:03.730Z,5.15
2019-04-16T05:27:40.279Z,3.02
2019-04-16T05:30:07.145Z,3.47
2019-04-16T05:32:37.107Z,3.12
2019-04-16T05:35:10.156Z,2.60
2019-04-16T05:37:38.930Z,3.25
2019-04-16T05:40:10.079Z,3.50
2019-04-16T05:42:40.242Z,3.12
2019-04-16T05:45:10.186Z,3.22
2019-04-16T05:47:40.051Z,2.90
2019-04-16T05:50:10.562Z,2.58
2019-04-16T05:52:41.747Z,2.75
2019-04-16T05:55:30.705Z,3.20
2019-04-16T05:58:00.599Z,2.30
2019-04-16T06:00:38.319Z,3.62
2019-04-16T06:03:07.445Z,4.50
2019-04-16T06:05:37.559Z,4.30
2019-04-16T06:08:11.529Z,3.83
2019-04-16T06:10:41.623Z,4.30
2019-04-16T06:13:29.277Z,4.12
2019-04-16T06:16:14.568Z,3.08
2019-04-16T06:19:04.186Z,3.22
2019-04-16T06:21:56.454Z,2.42
2019-04-16T06:25:08.496Z,2.67
2019-04-16T06:27:51.254Z,4.08
2019-04-16T06:30:32.737Z,3.60
2019-04-16T06:33:04.539Z,3.55
2019-04-16T06:35:59.195Z,3.45
2019-04-16T06:38:32.767Z,2.95
2019-04-16T06:41:12.165Z,3.60
2019-04-16T06:43:44.870Z,3.70
2019-04-16T06:46:23.029Z,4.05
2019-04-16T06:49:17.751Z,3.37
2019-04-16T06:52:16.022Z,4.17
2019-04-16T06:55:03.673Z,3.98
2019-04-16T06:58:03.353Z,2.67
2019-04-16T07:00:52.060Z,3.42
2019-04-16T07:03:47.123Z,3.87
2019-04-16T07:06:36.302Z,4.37
2019-04-16T07:09:41.101Z,3.50
2019-04-16T07:12:07.860Z,2.60
2019-04-16T07:14:38.333Z,3.92
2019-04-16T07:17:08.366Z,3.02
2019-04-16T07:19:39.447Z,4.37
2019-04-16T07:22:10.143Z,5.03
2019-04-16T07:24:40.359Z,4.55
2019-04-16T07:27:10.282Z,4.28
2019-04-16T07:29:50.133Z,3.37
2019-04-16T07:32:30.411Z,3.05
2019-04-16T07:35:07.983Z,3.08
2019-04-16T07:37:56.715Z,2.52
2019-04-16T07:40:51.357Z,3.30
2019-04-16T07:43:39.222Z,4.35
2019-04-16T07:46:37.455Z,2.92
2019-04-16T07:49:32.646Z,3.47
2019-04-16T07:52:17.851Z,5.12
2019-04-16T07:55:05.328Z,4.20
2019-04-16T07:57:35.212Z,4.97
2019-04-16T08:00:09.503Z,3.12
2019-04-16T08:02:37.967Z,3.85
2019-04-16T08:05:09.584Z,4.25
2019-04-16T08:07:39.634Z,5.40
2019-04-16T08:10:09.736Z,4.72
2019-04-16T08:12:42.213Z,3.95
2019-04-16T08:15:15.219Z,3.95
2019-04-16T08:17:44.126Z,3.40
2019-04-16T08:20:14.433Z,4.70
2019-04-16T08:22:47.193Z,6.37
2019-04-16T08:25:19.219Z,4.78
2019-04-16T08:27:50.743Z,5.22
2019-04-16T08:30:20.799Z,4.83
2019-04-16T08:32:50.739Z,4.20
2019-04-16T08:35:20.685Z,4.00
2019-04-16T08:37:50.623Z,3.42
2019-04-16T08:40:20.583Z,3.42
2019-04-16T08:42:50.589Z,3.52
2019-04-16T08:45:20.967Z,3.83
2019-04-16T08:47:50.824Z,3.90
2019-04-16T08:50:25.809Z,4.00
2019-04-16T08:52:52.826Z,3.52
2019-04-16T08:55:23.690Z,3.22
2019-04-16T08:57:55.186Z,3.70
2019-04-16T09:00:26.195Z,4.15
2019-04-16T09:02:58.717Z,3.17
2019-04-16T09:05:27.723Z,5.47
2019-04-16T09:08:12.610Z,3.58
2019-04-16T09:10:35.449Z,4.35
2019-04-16T09:13:07.332Z,4.17
2019-04-16T09:15:38.025Z,5.03
2019-04-16T09:18:17.700Z,4.10
2019-04-16T09:20:47.634Z,3.67
2019-04-16T09:23:17.569Z,5.20
2019-04-16T09:26:23.537Z,4.25
2019-04-16T09:29:08.131Z,4.45
2019-04-16T09:31:55.326Z,3.98
2019-04-16T09:34:43.106Z,4.95
2019-04-16T09:37:28.714Z,3.35
2019-04-16T09:40:18.527Z,4.47
2019-04-16T09:42:48.928Z,4.05
2019-04-16T09:45:19.603Z,4.80
2019-04-16T09:47:49.619Z,4.50
2019-04-16T09:50:19.381Z,4.80
2019-04-16T09:52:49.270Z,4.35
2019-04-16T09:55:19.660Z,6.10
2019-04-16T09:57:49.777Z,5.58
2019-04-16T10:00:24.369Z,3.65
2019-04-16T10:05:26.504Z,5.05
2019-04-16T10:07:57.193Z,5.47
2019-04-16T10:10:27.947Z,6.85
2019-04-16T10:12:59.445Z,6.42
2019-04-16T10:15:29.497Z,6.00
2019-04-16T10:18:01.503Z,4.95
2019-04-16T10:20:31.132Z,5.58
2019-04-16T10:23:03.120Z,4.80
2019-04-16T10:25:33.766Z,4.62
2019-04-16T10:28:12.428Z,8.03
2019-04-16T10:30:46.885Z,3.95
2019-04-16T10:35:45.887Z,4.45
2019-04-16T10:38:28.223Z,4.65
2019-04-16T10:41:07.775Z,4.10
2019-04-16T10:43:45.714Z,4.35
2019-04-16T10:46:34.891Z,4.67
2019-04-16T10:49:10.190Z,5.53
2019-04-16T10:51:50.524Z,5.05
2019-04-16T10:54:57.723Z,6.20
2019-04-16T10:57:38.495Z,5.67
2019-04-16T11:00:50.293Z,6.00
2019-04-16T11:03:34.491Z,6.15
2019-04-16T11:06:14.092Z,4.62
2019-04-16T11:08:44.073Z,4.25
2019-04-16T11:11:13.903Z,4.40
2019-04-16T11:13:58.888Z,6.10
2019-04-16T11:16:18.846Z,4.62
2019-04-16T11:18:49.104Z,5.10
2019-04-16T11:21:19.174Z,5.55
2019-04-16T11:23:50.238Z,4.65
2019-04-16T11:26:20.345Z,3.08
2019-04-16T11:28:50.247Z,5.03
2019-04-16T11:31:21.453Z,3.27
2019-04-16T11:33:51.487Z,4.55
2019-04-16T11:36:21.715Z,6.03
2019-04-16T11:38:51.795Z,4.60
2019-04-16T11:41:21.704Z,6.72
2019-04-16T11:43:51.590Z,5.70
2019-04-16T11:46:21.968Z,4.97
2019-04-16T11:48:51.841Z,6.55
2019-04-16T11:51:21.927Z,6.70
2019-04-16T11:53:51.736Z,5.85
2019-04-16T11:56:22.657Z,4.97
2019-04-16T11:58:52.929Z,7.20
2019-04-16T12:02:00.229Z,6.00
2019-04-16T12:04:47.828Z,7.08
2019-04-16T12:07:21.662Z,7.00
2019-04-16T12:10:09.848Z,6.62
2019-04-16T12:13:07.717Z,6.83
2019-04-16T12:15:58.020Z,7.33
2019-04-16T12:18:32.316Z,6.67
2019-04-16T12:24:01.284Z,7.50
2019-04-16T12:26:50.386Z,7.30
2019-04-16T12:29:30.645Z,4.25
2019-04-16T12:32:08.976Z,5.95
2019-04-16T12:35:01.638Z,6.50
2019-04-16T12:37:49.490Z,6.17
2019-04-16T12:40:28.066Z,4.40
2019-04-16T12:43:14.715Z,3.70
2019-04-16T12:45:53.417Z,4.10
2019-04-16T12:48:37.819Z,7.10
2019-04-16T12:51:41.819Z,5.42
2019-04-16T12:54:29.544Z,6.97
2019-04-16T12:57:16.694Z,4.45
2019-04-16T13:00:26.119Z,5.12
2019-04-16T13:03:10.630Z,6.85
2019-04-16T13:06:01.383Z,8.20
2019-04-16T13:08:53.674Z,5.62
2019-04-16T13:11:36.461Z,5.97
2019-04-16T13:14:24.283Z,7.12
2019-04-16T13:17:04.375Z,7.75
2019-04-16T13:19:53.347Z,5.22
2019-04-16T13:22:27.142Z,5.08
2019-04-16T13:25:05.915Z,8.03
2019-04-16T13:27:37.701Z,5.90
2019-04-16T13:30:09.089Z,6.20
2019-04-16T13:32:39.187Z,6.35
2019-04-16T13:35:09.363Z,6.65
2019-04-16T13:37:39.251Z,4.65
2019-04-16T13:40:15.668Z,6.12
2019-04-16T13:42:45.779Z,3.98
2019-04-16T13:45:25.947Z,8.80
2019-04-16T13:47:55.724Z,7.87
2019-04-16T13:50:40.459Z,5.58
2019-04-16T13:53:28.223Z,7.30
2019-04-16T13:56:17.443Z,7.25
2019-04-16T13:58:56.131Z,7.25
2019-04-16T14:01:29.683Z,6.67
2019-04-16T14:03:59.553Z,5.30
2019-04-16T14:06:29.547Z,6.67
2019-04-16T14:08:59.572Z,8.75
2019-04-16T14:11:29.710Z,7.40
2019-04-16T14:13:59.655Z,6.45
2019-04-16T14:16:29.590Z,8.43
2019-04-16T14:19:02.524Z,7.42
2019-04-16T14:21:32.490Z,8.10
2019-04-16T14:24:02.650Z,5.67
2019-04-16T14:26:32.814Z,5.78
2019-04-16T14:29:05.941Z,7.33
2019-04-16T14:31:34.544Z,5.83
2019-04-16T14:34:36.802Z,6.53
2019-04-16T14:37:11.398Z,7.28
2019-04-16T14:39:44.357Z,5.42
2019-04-16T14:42:15.178Z,6.72
2019-04-16T14:44:49.128Z,6.00
2019-04-16T14:47:19.010Z,8.33
2019-04-16T14:49:50.844Z,10.60
2019-04-16T14:52:20.508Z,6.65
2019-04-16T14:54:57.861Z,5.80
2019-04-16T14:57:27.882Z,5.75
2019-04-16T15:00:16.405Z,6.85
2019-04-16T15:02:51.537Z,5.72
2019-04-16T15:05:39.483Z,6.15
2019-04-16T15:08:31.337Z,7.33
2019-04-16T15:11:31.172Z,7.75
2019-04-16T15:14:08.698Z,6.33
2019-04-16T15:16:43.073Z,7.30
2019-04-16T15:22:23.034Z,8.50
2019-04-16T15:25:07.531Z,6.70
2019-04-16T15:27:55.162Z,7.58
2019-04-16T15:30:43.568Z,7.05
2019-04-16T15:33:50.736Z,6.92
2019-04-16T15:36:30.988Z,4.62
2019-04-16T15:39:10.000Z,7.17
2019-04-16T15:41:46.739Z,5.78
2019-04-16T15:44:23.670Z,5.85
2019-04-16T15:47:14.292Z,5.17
2019-04-16T15:50:00.041Z,11.48
2019-04-16T15:53:07.741Z,10.65
2019-04-16T15:56:12.062Z,6.40
2019-04-16T15:58:49.580Z,5.05
2019-04-16T16:01:50.579Z,10.15
2019-04-16T16:04:35.779Z,6.35
2019-04-16T16:07:11.921Z,7.05
2019-04-16T16:09:59.681Z,8.80
2019-04-16T16:12:31.544Z,5.45
2019-04-16T16:15:02.157Z,5.42
2019-04-16T16:17:33.600Z,5.33
2019-04-16T16:20:03.735Z,6.50
2019-04-16T16:22:33.545Z,7.58
2019-04-16T16:25:05.867Z,7.45
2019-04-16T16:27:35.058Z,5.53
2019-04-16T16:30:06.143Z,7.22
2019-04-16T16:32:36.040Z,7.85
2019-04-16T16:35:06.581Z,7.12
2019-04-16T16:37:37.522Z,7.30
2019-04-16T16:40:07.887Z,6.67
2019-04-16T16:42:38.080Z,7.35
2019-04-16T16:45:09.225Z,7.15
2019-04-16T16:47:40.565Z,7.97
2019-04-16T16:50:14.158Z,9.48
2019-04-16T16:53:01.140Z,8.08
2019-04-16T16:55:49.420Z,6.28
2019-04-16T16:58:41.519Z,7.42
2019-04-16T17:01:27.244Z,7.47
2019-04-16T17:04:07.155Z,7.40
2019-04-16T17:06:37.232Z,5.22
2019-04-16T17:09:09.011Z,6.25
2019-04-16T17:11:40.186Z,6.28
2019-04-16T17:14:10.721Z,9.55
2019-04-16T17:16:40.535Z,5.60
2019-04-16T17:19:10.323Z,7.20
2019-04-16T17:21:40.239Z,5.65
2019-04-16T17:24:13.282Z,5.85
2019-04-16T17:26:46.943Z,5.40
2019-04-16T17:29:16.923Z,5.12
2019-04-16T17:31:48.130Z,6.25
2019-04-16T17:34:18.333Z,7.47
2019-04-16T17:36:48.221Z,6.35
2019-04-16T17:39:33.024Z,5.72
2019-04-16T17:44:55.085Z,6.08
2019-04-16T17:47:50.051Z,7.85
2019-04-16T17:50:30.478Z,6.75
2019-04-16T17:53:10.145Z,6.87
2019-04-16T17:55:58.046Z,5.95
2019-04-16T17:58:36.465Z,6.28
2019-04-16T18:01:24.397Z,6.42
2019-04-16T18:04:15.302Z,6.28
2019-04-16T18:06:59.994Z,5.97
2019-04-16T18:09:36.246Z,4.03
2019-04-16T18:12:35.071Z,4.45
2019-04-16T18:15:24.798Z,6.62
2019-04-16T18:18:02.490Z,7.53
2019-04-16T18:21:00.497Z,6.00
2019-04-16T18:23:48.630Z,4.87
2019-04-16T18:26:47.034Z,6.20
2019-04-16T18:29:21.551Z,3.75
2019-04-16T18:34:55.507Z,4.00
2019-04-16T18:37:30.728Z,5.85
2019-04-16T18:40:22.498Z,3.85
2019-04-16T18:43:25.192Z,4.17
2019-04-16T18:46:15.299Z,3.60
2019-04-16T18:48:46.125Z,5.12
2019-04-16T18:51:15.915Z,4.50
2019-04-16T18:53:45.711Z,4.62
2019-04-16T18:56:15.687Z,4.37
2019-04-16T18:58:45.746Z,3.85
2019-04-16T19:01:24.610Z,4.45
2019-04-16T19:03:52.879Z,4.87
2019-04-16T19:06:22.816Z,4.35
2019-04-16T19:08:52.901Z,4.20
2019-04-16T19:11:22.880Z,6.22
2019-04-16T19:13:53.602Z,4.45
2019-04-16T19:16:23.522Z,3.62
2019-04-16T19:18:53.663Z,6.15
2019-04-16T19:21:23.764Z,5.12
2019-04-16T19:23:53.525Z,4.70
2019-04-16T19:26:23.519Z,3.47
2019-04-16T19:28:53.577Z,4.60
2019-04-16T19:31:25.060Z,5.05
2019-04-16T19:33:54.885Z,3.33
2019-04-16T19:36:27.564Z,4.58
2019-04-16T19:38:56.673Z,4.80
2019-04-16T19:41:26.793Z,5.03
2019-04-16T19:43:56.587Z,6.10
2019-04-16T19:46:26.473Z,5.72
2019-04-16T19:48:56.669Z,3.83
2019-04-16T19:51:27.778Z,4.35
2019-04-16T19:53:58.656Z,4.67
2019-04-16T19:56:28.657Z,4.25
2019-04-16T19:58:58.520Z,3.37
2019-04-16T20:01:28.369Z,4.55
2019-04-16T20:03:58.322Z,5.15
2019-04-16T20:06:28.265Z,3.50
2019-04-16T20:08:58.422Z,3.50
2019-04-16T20:11:28.431Z,3.17
2019-04-16T20:14:01.107Z,4.10
2019-04-16T20:16:30.247Z,3.95
2019-04-16T20:19:00.332Z,3.22
2019-04-16T20:21:30.349Z,3.85
2019-04-16T20:24:00.403Z,3.90
2019-04-16T20:26:32.654Z,4.50
2019-04-16T20:29:02.248Z,3.15
2019-04-16T20:31:33.283Z,4.05
2019-04-16T20:34:03.197Z,3.77
2019-04-16T20:36:33.110Z,4.20
2019-04-16T20:39:02.964Z,4.70
2019-04-16T20:41:34.474Z,4.62
2019-04-16T20:44:08.449Z,3.70
2019-04-16T20:46:36.121Z,4.10
2019-04-16T20:49:09.898Z,4.12
2019-04-16T20:51:37.691Z,3.72
2019-04-16T20:54:12.232Z,4.62
2019-04-16T20:56:40.644Z,4.47
2019-04-16T20:59:13.518Z,4.67
2019-04-16T21:01:43.543Z,3.27
2019-04-16T21:04:13.473Z,4.00
2019-04-16T21:06:43.444Z,4.08
2019-04-16T21:09:13.419Z,4.00
2019-04-16T21:11:43.276Z,4.80
2019-04-16T21:14:13.263Z,4.33
2019-04-16T21:16:43.200Z,3.83
2019-04-16T21:19:22.927Z,5.08
2019-04-16T21:21:44.982Z,4.67
2019-04-16T21:24:14.929Z,5.72
2019-04-16T21:26:45.226Z,4.45
2019-04-16T21:29:34.849Z,4.42
2019-04-16T21:32:09.868Z,5.22
2019-04-16T21:34:50.419Z,5.15
2019-04-16T21:37:38.369Z,4.53
2019-04-16T21:40:08.499Z,4.17
2019-04-16T21:42:38.866Z,5.25
2019-04-16T21:45:09.560Z,4.60
2019-04-16T21:47:39.440Z,3.83
2019-04-16T21:50:09.478Z,4.25
2019-04-16T21:52:39.319Z,4.30
2019-04-16T21:55:09.987Z,4.08
2019-04-16T21:57:42.853Z,5.67
2019-04-16T22:00:33.231Z,3.98
2019-04-16T22:03:09.166Z,4.03
2019-04-16T22:05:37.842Z,4.37
2019-04-16T22:08:07.831Z,6.10
2019-04-16T22:10:39.231Z,4.97
2019-04-16T22:13:09.322Z,3.95
2019-04-16T22:15:39.212Z,5.03
2019-04-16T22:18:10.057Z,3.98
2019-04-16T22:20:42.345Z,4.35
2019-04-16T22:23:11.907Z,3.90
2019-04-16T22:25:41.991Z,4.05
2019-04-16T22:28:12.985Z,6.40
2019-04-16T22:30:43.003Z,4.45
2019-04-16T22:33:12.919Z,4.50
2019-04-16T22:35:42.876Z,5.40
2019-04-16T22:38:14.510Z,5.03
2019-04-16T22:40:54.981Z,4.97
2019-04-16T22:43:43.543Z,4.75
2019-04-16T22:46:32.384Z,4.35
2019-04-16T22:49:02.583Z,4.20
2019-04-16T22:51:32.705Z,3.80
2019-04-16T22:54:02.821Z,5.03
2019-04-16T22:56:46.171Z,4.22
2019-04-16T22:59:15.964Z,3.60
2019-04-16T23:01:45.857Z,4.97
2019-04-16T23:04:15.802Z,4.65
2019-04-16T23:06:45.590Z,4.12
2019-04-16T23:09:17.009Z,4.90
2019-04-16T23:11:46.998Z,3.95
2019-04-16T23:14:17.738Z,4.15
2019-04-16T23:16:47.637Z,4.28
2019-04-16T23:19:20.192Z,3.95
2019-04-16T23:21:49.305Z,4.42
2019-04-16T23:24:22.842Z,4.47
2019-04-16T23:26:51.012Z,3.58
2019-04-16T23:29:20.994Z,4.87
2019-04-16T23:31:55.229Z,5.85
2019-04-16T23:34:22.480Z,4.20
2019-04-16T23:36:52.551Z,4.05
2019-04-16T23:39:22.605Z,4.15
2019-04-16T23:41:52.703Z,3.80
2019-04-16T23:44:41.734Z,4.85
2019-04-16T23:47:42.013Z,3.65
2019-04-16T23:50:26.125Z,4.35
2019-04-16T23:53:07.229Z,4.97
2019-04-16T23:55:49.005Z,3.60
2019-04-16T23:58:28.598Z,3.40
